sensor_id;sensor_type;location;lat;lon;timestamp;P1;durP1;ratioP1;P2;durP2;ratioP2
50102;SDS011;35993;52.604;10.078;2022-09-27T00:00:28;3.42;;;1.52;;
50102;SDS011;35993;52.604;10.078;2022-09-27T00:02:55;2.60;;;1.55;;
50102;SDS011;35993;52.604;10.078;2022-09-27T00:05:20;2.38;;;1.40;;
50102;SDS011;35993;52.604;10.078;2022-09-27T00:07:46;3.00;;;1.48;;
50102;SDS011;35993;52.604;10.078;2022-09-27T00:10:13;1.90;;;1.45;;
50102;SDS011;35993;52.604;10.078;2022-09-27T00:12:39;2.00;;;1.33;;
50102;SDS011;35993;52.604;10.078;2022-09-27T00:15:05;2.17;;;1.42;;
50102;SDS011;35993;52.604;10.078;2022-09-27T00:17:31;3.85;;;1.70;;
50102;SDS011;35993;52.604;10.078;2022-09-27T00:19:58;1.88;;;1.38;;
50102;SDS011;35993;52.604;10.078;2022-09-27T00:22:24;3.92;;;1.30;;
50102;SDS011;35993;52.604;10.078;2022-09-27T00:24:51;2.47;;;1.60;;
50102;SDS011;35993;52.604;10.078;2022-09-27T00:27:17;1.85;;;1.48;;
50102;SDS011;35993;52.604;10.078;2022-09-27T00:29:45;3.75;;;1.50;;
50102;SDS011;35993;52.604;10.078;2022-09-27T00:32:12;2.80;;;1.52;;
50102;SDS011;35993;52.604;10.078;2022-09-27T00:34:39;4.80;;;2.00;;
50102;SDS011;35993;52.604;10.078;2022-09-27T00:37:07;2.53;;;1.52;;
50102;SDS011;35993;52.604;10.078;2022-09-27T00:39:34;2.92;;;1.35;;
50102;SDS011;35993;52.604;10.078;2022-09-27T00:42:00;3.92;;;1.65;;
50102;SDS011;35993;52.604;10.078;2022-09-27T00:47:07;3.88;;;1.80;;
50102;SDS011;35993;52.604;10.078;2022-09-27T00:49:56;3.78;;;1.60;;
50102;SDS011;35993;52.604;10.078;2022-09-27T00:52:31;2.33;;;1.30;;
50102;SDS011;35993;52.604;10.078;2022-09-27T00:55:03;1.83;;;1.30;;
50102;SDS011;35993;52.604;10.078;2022-09-27T00:57:37;4.95;;;1.60;;
50102;SDS011;35993;52.604;10.078;2022-09-27T01:00:05;3.35;;;1.63;;
50102;SDS011;35993;52.604;10.078;2022-09-27T01:02:34;3.25;;;1.50;;
50102;SDS011;35993;52.604;10.078;2022-09-27T01:05:04;2.28;;;1.60;;
50102;SDS011;35993;52.604;10.078;2022-09-27T01:07:32;2.03;;;1.50;;
50102;SDS011;35993;52.604;10.078;2022-09-27T01:09:59;2.40;;;1.40;;
50102;SDS011;35993;52.604;10.078;2022-09-27T01:15:22;2.30;;;1.50;;
50102;SDS011;35993;52.604;10.078;2022-09-27T01:17:59;1.92;;;1.40;;
50102;SDS011;35993;52.604;10.078;2022-09-27T01:20:47;2.20;;;1.48;;
50102;SDS011;35993;52.604;10.078;2022-09-27T01:26:16;2.42;;;1.50;;
50102;SDS011;35993;52.604;10.078;2022-09-27T01:32:10;3.05;;;1.55;;
50102;SDS011;35993;52.604;10.078;2022-09-27T01:34:58;3.05;;;1.50;;
50102;SDS011;35993;52.604;10.078;2022-09-27T01:37:48;3.70;;;1.58;;
50102;SDS011;35993;52.604;10.078;2022-09-27T01:46:28;2.15;;;1.50;;
50102;SDS011;35993;52.604;10.078;2022-09-27T01:49:18;2.85;;;1.45;;
50102;SDS011;35993;52.604;10.078;2022-09-27T01:51:53;2.50;;;1.48;;
50102;SDS011;35993;52.604;10.078;2022-09-27T01:54:24;2.55;;;1.50;;
50102;SDS011;35993;52.604;10.078;2022-09-27T01:57:50;2.10;;;1.60;;
50102;SDS011;35993;52.604;10.078;2022-09-27T02:00:24;1.88;;;1.52;;
50102;SDS011;35993;52.604;10.078;2022-09-27T02:02:57;2.33;;;1.70;;
50102;SDS011;35993;52.604;10.078;2022-09-27T02:06:13;2.30;;;1.65;;
50102;SDS011;35993;52.604;10.078;2022-09-27T02:09:12;2.33;;;1.88;;
50102;SDS011;35993;52.604;10.078;2022-09-27T02:12:02;3.13;;;1.65;;
50102;SDS011;35993;52.604;10.078;2022-09-27T02:14:55;2.22;;;1.67;;
50102;SDS011;35993;52.604;10.078;2022-09-27T02:17:30;3.58;;;1.90;;
50102;SDS011;35993;52.604;10.078;2022-09-27T02:23:03;3.13;;;1.90;;
50102;SDS011;35993;52.604;10.078;2022-09-27T02:25:50;2.75;;;2.00;;
50102;SDS011;35993;52.604;10.078;2022-09-27T02:30:59;4.38;;;1.77;;
50102;SDS011;35993;52.604;10.078;2022-09-27T02:33:49;2.47;;;2.10;;
50102;SDS011;35993;52.604;10.078;2022-09-27T02:36:19;3.25;;;2.00;;
50102;SDS011;35993;52.604;10.078;2022-09-27T02:38:45;4.07;;;2.20;;
50102;SDS011;35993;52.604;10.078;2022-09-27T02:41:17;2.60;;;1.98;;
50102;SDS011;35993;52.604;10.078;2022-09-27T02:43:46;2.78;;;2.15;;
50102;SDS011;35993;52.604;10.078;2022-09-27T02:46:24;5.40;;;2.30;;
50102;SDS011;35993;52.604;10.078;2022-09-27T02:55:50;2.85;;;2.15;;
50102;SDS011;35993;52.604;10.078;2022-09-27T02:58:49;3.85;;;2.53;;
50102;SDS011;35993;52.604;10.078;2022-09-27T03:01:50;3.15;;;2.40;;
50102;SDS011;35993;52.604;10.078;2022-09-27T03:04:28;3.33;;;2.78;;
50102;SDS011;35993;52.604;10.078;2022-09-27T03:06:58;3.65;;;2.80;;
50102;SDS011;35993;52.604;10.078;2022-09-27T03:09:27;3.75;;;2.70;;
50102;SDS011;35993;52.604;10.078;2022-09-27T03:11:54;4.47;;;2.72;;
50102;SDS011;35993;52.604;10.078;2022-09-27T03:14:20;4.70;;;3.03;;
50102;SDS011;35993;52.604;10.078;2022-09-27T03:16:58;4.10;;;3.10;;
50102;SDS011;35993;52.604;10.078;2022-09-27T03:19:47;3.22;;;2.53;;
50102;SDS011;35993;52.604;10.078;2022-09-27T03:22:33;4.00;;;3.10;;
50102;SDS011;35993;52.604;10.078;2022-09-27T03:24:59;5.55;;;3.45;;
50102;SDS011;35993;52.604;10.078;2022-09-27T03:27:25;12.18;;;6.35;;
50102;SDS011;35993;52.604;10.078;2022-09-27T03:29:51;5.03;;;3.13;;
50102;SDS011;35993;52.604;10.078;2022-09-27T03:32:17;5.05;;;3.30;;
50102;SDS011;35993;52.604;10.078;2022-09-27T03:35:02;4.47;;;3.10;;
50102;SDS011;35993;52.604;10.078;2022-09-27T03:37:27;4.45;;;3.33;;
50102;SDS011;35993;52.604;10.078;2022-09-27T03:39:53;4.28;;;3.00;;
50102;SDS011;35993;52.604;10.078;2022-09-27T03:42:19;4.00;;;2.90;;
50102;SDS011;35993;52.604;10.078;2022-09-27T03:44:49;4.78;;;3.10;;
50102;SDS011;35993;52.604;10.078;2022-09-27T03:47:16;5.65;;;2.80;;
50102;SDS011;35993;52.604;10.078;2022-09-27T03:49:42;5.03;;;3.22;;
50102;SDS011;35993;52.604;10.078;2022-09-27T03:52:07;4.65;;;2.90;;
50102;SDS011;35993;52.604;10.078;2022-09-27T03:54:33;4.95;;;3.75;;
50102;SDS011;35993;52.604;10.078;2022-09-27T03:56:59;4.55;;;3.08;;
50102;SDS011;35993;52.604;10.078;2022-09-27T03:59:25;4.20;;;3.00;;
50102;SDS011;35993;52.604;10.078;2022-09-27T04:02:09;4.78;;;3.00;;
50102;SDS011;35993;52.604;10.078;2022-09-27T04:05:10;4.90;;;3.10;;
50102;SDS011;35993;52.604;10.078;2022-09-27T04:07:36;6.10;;;3.80;;
50102;SDS011;35993;52.604;10.078;2022-09-27T04:10:03;5.18;;;3.40;;
50102;SDS011;35993;52.604;10.078;2022-09-27T04:12:30;4.47;;;3.47;;
50102;SDS011;35993;52.604;10.078;2022-09-27T04:14:57;5.20;;;3.72;;
50102;SDS011;35993;52.604;10.078;2022-09-27T04:17:42;4.80;;;3.78;;
50102;SDS011;35993;52.604;10.078;2022-09-27T04:20:34;6.18;;;4.50;;
50102;SDS011;35993;52.604;10.078;2022-09-27T04:23:06;6.45;;;4.00;;
50102;SDS011;35993;52.604;10.078;2022-09-27T04:25:36;7.65;;;4.63;;
50102;SDS011;35993;52.604;10.078;2022-09-27T04:28:09;6.30;;;4.25;;
50102;SDS011;35993;52.604;10.078;2022-09-27T04:30:34;6.13;;;4.18;;
50102;SDS011;35993;52.604;10.078;2022-09-27T04:33:20;9.30;;;4.97;;
50102;SDS011;35993;52.604;10.078;2022-09-27T04:36:16;7.85;;;5.13;;
50102;SDS011;35993;52.604;10.078;2022-09-27T04:39:00;8.40;;;5.13;;
50102;SDS011;35993;52.604;10.078;2022-09-27T04:41:28;8.20;;;5.20;;
50102;SDS011;35993;52.604;10.078;2022-09-27T04:43:55;6.75;;;4.57;;
50102;SDS011;35993;52.604;10.078;2022-09-27T04:46:22;7.05;;;4.75;;
50102;SDS011;35993;52.604;10.078;2022-09-27T04:48:49;7.78;;;5.40;;
50102;SDS011;35993;52.604;10.078;2022-09-27T04:51:16;8.20;;;5.50;;
50102;SDS011;35993;52.604;10.078;2022-09-27T04:53:42;9.55;;;5.75;;
50102;SDS011;35993;52.604;10.078;2022-09-27T04:56:10;10.20;;;5.70;;
50102;SDS011;35993;52.604;10.078;2022-09-27T04:58:40;8.27;;;5.35;;
50102;SDS011;35993;52.604;10.078;2022-09-27T05:01:06;11.65;;;5.65;;
50102;SDS011;35993;52.604;10.078;2022-09-27T05:03:52;8.90;;;5.47;;
50102;SDS011;35993;52.604;10.078;2022-09-27T05:06:17;7.10;;;4.60;;
50102;SDS011;35993;52.604;10.078;2022-09-27T05:08:43;6.22;;;4.53;;
50102;SDS011;35993;52.604;10.078;2022-09-27T05:11:30;7.22;;;4.53;;
50102;SDS011;35993;52.604;10.078;2022-09-27T05:14:15;7.00;;;4.60;;
50102;SDS011;35993;52.604;10.078;2022-09-27T05:16:54;5.93;;;4.13;;
50102;SDS011;35993;52.604;10.078;2022-09-27T05:19:48;7.00;;;4.57;;
50102;SDS011;35993;52.604;10.078;2022-09-27T05:22:40;11.07;;;4.43;;
50102;SDS011;35993;52.604;10.078;2022-09-27T05:25:06;7.85;;;5.13;;
50102;SDS011;35993;52.604;10.078;2022-09-27T05:27:32;10.95;;;5.95;;
50102;SDS011;35993;52.604;10.078;2022-09-27T05:29:58;9.27;;;5.00;;
50102;SDS011;35993;52.604;10.078;2022-09-27T05:32:33;9.15;;;4.90;;
50102;SDS011;35993;52.604;10.078;2022-09-27T05:35:32;7.25;;;4.63;;
50102;SDS011;35993;52.604;10.078;2022-09-27T05:37:59;6.32;;;3.92;;
50102;SDS011;35993;52.604;10.078;2022-09-27T05:40:28;7.97;;;4.15;;
50102;SDS011;35993;52.604;10.078;2022-09-27T05:42:54;7.93;;;4.30;;
50102;SDS011;35993;52.604;10.078;2022-09-27T05:45:21;5.07;;;3.53;;
50102;SDS011;35993;52.604;10.078;2022-09-27T05:47:55;5.90;;;3.63;;
50102;SDS011;35993;52.604;10.078;2022-09-27T05:50:23;5.65;;;3.65;;
50102;SDS011;35993;52.604;10.078;2022-09-27T05:52:50;9.63;;;3.85;;
50102;SDS011;35993;52.604;10.078;2022-09-27T05:55:18;6.75;;;4.10;;
50102;SDS011;35993;52.604;10.078;2022-09-27T05:58:00;6.07;;;3.78;;
50102;SDS011;35993;52.604;10.078;2022-09-27T06:00:42;5.43;;;4.10;;
50102;SDS011;35993;52.604;10.078;2022-09-27T06:03:28;5.80;;;3.85;;
50102;SDS011;35993;52.604;10.078;2022-09-27T06:06:25;5.90;;;3.85;;
50102;SDS011;35993;52.604;10.078;2022-09-27T06:08:54;6.57;;;3.53;;
50102;SDS011;35993;52.604;10.078;2022-09-27T06:11:22;6.30;;;3.70;;
50102;SDS011;35993;52.604;10.078;2022-09-27T06:13:48;5.25;;;3.63;;
50102;SDS011;35993;52.604;10.078;2022-09-27T06:16:14;8.23;;;3.97;;
50102;SDS011;35993;52.604;10.078;2022-09-27T06:18:43;6.72;;;4.15;;
50102;SDS011;35993;52.604;10.078;2022-09-27T06:21:09;5.75;;;4.03;;
50102;SDS011;35993;52.604;10.078;2022-09-27T06:23:37;6.10;;;3.65;;
50102;SDS011;35993;52.604;10.078;2022-09-27T06:26:14;6.57;;;4.07;;
50102;SDS011;35993;52.604;10.078;2022-09-27T06:28:59;6.43;;;4.15;;
50102;SDS011;35993;52.604;10.078;2022-09-27T06:31:25;6.78;;;4.30;;
50102;SDS011;35993;52.604;10.078;2022-09-27T06:34:00;8.32;;;4.72;;
50102;SDS011;35993;52.604;10.078;2022-09-27T06:36:27;5.82;;;3.92;;
50102;SDS011;35993;52.604;10.078;2022-09-27T06:38:53;5.88;;;4.18;;
50102;SDS011;35993;52.604;10.078;2022-09-27T06:41:22;5.53;;;4.18;;
50102;SDS011;35993;52.604;10.078;2022-09-27T06:43:55;7.13;;;3.90;;
50102;SDS011;35993;52.604;10.078;2022-09-27T06:46:39;6.82;;;4.25;;
50102;SDS011;35993;52.604;10.078;2022-09-27T06:49:32;6.35;;;3.80;;
50102;SDS011;35993;52.604;10.078;2022-09-27T06:51:58;10.20;;;4.00;;
50102;SDS011;35993;52.604;10.078;2022-09-27T06:54:24;6.38;;;3.72;;
50102;SDS011;35993;52.604;10.078;2022-09-27T06:56:50;8.82;;;3.38;;
50102;SDS011;35993;52.604;10.078;2022-09-27T06:59:15;5.53;;;3.25;;
50102;SDS011;35993;52.604;10.078;2022-09-27T07:02:19;8.38;;;3.63;;
50102;SDS011;35993;52.604;10.078;2022-09-27T07:04:56;6.97;;;3.40;;
50102;SDS011;35993;52.604;10.078;2022-09-27T07:07:40;8.73;;;3.33;;
50102;SDS011;35993;52.604;10.078;2022-09-27T07:10:06;6.70;;;3.90;;
50102;SDS011;35993;52.604;10.078;2022-09-27T07:12:34;5.57;;;3.20;;
50102;SDS011;35993;52.604;10.078;2022-09-27T07:15:01;8.50;;;3.55;;
50102;SDS011;35993;52.604;10.078;2022-09-27T07:17:28;10.25;;;3.45;;
50102;SDS011;35993;52.604;10.078;2022-09-27T07:19:54;8.70;;;4.13;;
50102;SDS011;35993;52.604;10.078;2022-09-27T07:22:20;8.30;;;3.05;;
50102;SDS011;35993;52.604;10.078;2022-09-27T07:24:51;5.68;;;3.63;;
50102;SDS011;35993;52.604;10.078;2022-09-27T07:27:18;6.90;;;3.60;;
50102;SDS011;35993;52.604;10.078;2022-09-27T07:29:44;6.53;;;3.20;;
50102;SDS011;35993;52.604;10.078;2022-09-27T07:32:10;7.03;;;2.83;;
50102;SDS011;35993;52.604;10.078;2022-09-27T07:34:37;6.60;;;3.08;;
50102;SDS011;35993;52.604;10.078;2022-09-27T07:37:03;5.22;;;2.83;;
50102;SDS011;35993;52.604;10.078;2022-09-27T07:39:32;9.75;;;3.22;;
50102;SDS011;35993;52.604;10.078;2022-09-27T07:42:00;6.35;;;2.60;;
50102;SDS011;35993;52.604;10.078;2022-09-27T07:44:26;4.43;;;2.92;;
50102;SDS011;35993;52.604;10.078;2022-09-27T07:47:11;9.00;;;2.90;;
50102;SDS011;35993;52.604;10.078;2022-09-27T07:49:55;6.00;;;2.80;;
50102;SDS011;35993;52.604;10.078;2022-09-27T07:52:41;7.15;;;3.00;;
50102;SDS011;35993;52.604;10.078;2022-09-27T07:55:27;6.07;;;2.60;;
50102;SDS011;35993;52.604;10.078;2022-09-27T07:58:03;7.18;;;2.80;;
50102;SDS011;35993;52.604;10.078;2022-09-27T08:02:57;7.90;;;3.00;;
50102;SDS011;35993;52.604;10.078;2022-09-27T08:05:23;6.57;;;3.35;;
50102;SDS011;35993;52.604;10.078;2022-09-27T08:07:53;6.18;;;2.88;;
50102;SDS011;35993;52.604;10.078;2022-09-27T08:10:20;5.30;;;2.80;;
50102;SDS011;35993;52.604;10.078;2022-09-27T08:12:50;5.47;;;2.92;;
50102;SDS011;35993;52.604;10.078;2022-09-27T08:15:19;6.38;;;3.03;;
50102;SDS011;35993;52.604;10.078;2022-09-27T08:17:45;5.25;;;2.50;;
50102;SDS011;35993;52.604;10.078;2022-09-27T08:20:16;5.63;;;2.85;;
50102;SDS011;35993;52.604;10.078;2022-09-27T08:22:51;6.20;;;2.70;;
50102;SDS011;35993;52.604;10.078;2022-09-27T08:25:25;4.43;;;2.60;;
50102;SDS011;35993;52.604;10.078;2022-09-27T08:28:02;7.20;;;2.85;;
50102;SDS011;35993;52.604;10.078;2022-09-27T08:30:36;4.30;;;2.90;;
50102;SDS011;35993;52.604;10.078;2022-09-27T08:33:03;5.13;;;2.55;;
50102;SDS011;35993;52.604;10.078;2022-09-27T08:35:30;6.35;;;2.55;;
50102;SDS011;35993;52.604;10.078;2022-09-27T08:37:58;5.68;;;2.90;;
50102;SDS011;35993;52.604;10.078;2022-09-27T08:40:48;7.07;;;2.63;;
50102;SDS011;35993;52.604;10.078;2022-09-27T08:43:32;5.07;;;2.50;;
50102;SDS011;35993;52.604;10.078;2022-09-27T08:46:24;3.63;;;2.15;;
50102;SDS011;35993;52.604;10.078;2022-09-27T08:49:04;4.18;;;2.10;;
50102;SDS011;35993;52.604;10.078;2022-09-27T08:51:37;7.05;;;2.80;;
50102;SDS011;35993;52.604;10.078;2022-09-27T08:54:07;5.35;;;2.33;;
50102;SDS011;35993;52.604;10.078;2022-09-27T08:56:41;5.22;;;1.80;;
50102;SDS011;35993;52.604;10.078;2022-09-27T08:59:15;4.43;;;2.25;;
50102;SDS011;35993;52.604;10.078;2022-09-27T09:01:48;3.35;;;1.95;;
50102;SDS011;35993;52.604;10.078;2022-09-27T09:04:39;5.03;;;1.83;;
50102;SDS011;35993;52.604;10.078;2022-09-27T09:12:52;4.68;;;2.15;;
50102;SDS011;35993;52.604;10.078;2022-09-27T09:15:43;5.30;;;2.05;;
50102;SDS011;35993;52.604;10.078;2022-09-27T09:24:39;3.80;;;1.77;;
50102;SDS011;35993;52.604;10.078;2022-09-27T09:27:11;2.90;;;1.70;;
50102;SDS011;35993;52.604;10.078;2022-09-27T09:33:05;3.42;;;1.70;;
50102;SDS011;35993;52.604;10.078;2022-09-27T09:35:53;3.80;;;2.15;;
50102;SDS011;35993;52.604;10.078;2022-09-27T09:38:37;3.47;;;1.95;;
50102;SDS011;35993;52.604;10.078;2022-09-27T09:43:58;4.97;;;1.90;;
50102;SDS011;35993;52.604;10.078;2022-09-27T09:46:50;3.70;;;2.03;;
50102;SDS011;35993;52.604;10.078;2022-09-27T09:52:17;3.78;;;1.88;;
50102;SDS011;35993;52.604;10.078;2022-09-27T09:54:45;8.00;;;2.25;;
50102;SDS011;35993;52.604;10.078;2022-09-27T09:57:19;6.28;;;2.42;;
50102;SDS011;35993;52.604;10.078;2022-09-27T10:00:06;6.90;;;2.30;;
50102;SDS011;35993;52.604;10.078;2022-09-27T10:02:42;3.90;;;1.90;;
50102;SDS011;35993;52.604;10.078;2022-09-27T10:07:44;4.32;;;2.03;;
50102;SDS011;35993;52.604;10.078;2022-09-27T10:10:14;5.00;;;1.70;;
50102;SDS011;35993;52.604;10.078;2022-09-27T10:12:45;3.58;;;1.80;;
50102;SDS011;35993;52.604;10.078;2022-09-27T10:15:23;3.53;;;2.25;;
50102;SDS011;35993;52.604;10.078;2022-09-27T10:17:52;6.57;;;2.63;;
50102;SDS011;35993;52.604;10.078;2022-09-27T10:20:37;5.88;;;2.28;;
50102;SDS011;35993;52.604;10.078;2022-09-27T10:23:14;3.00;;;1.55;;
50102;SDS011;35993;52.604;10.078;2022-09-27T10:26:03;3.50;;;1.73;;
50102;SDS011;35993;52.604;10.078;2022-09-27T10:28:36;3.22;;;1.90;;
50102;SDS011;35993;52.604;10.078;2022-09-27T10:31:11;4.75;;;2.35;;
50102;SDS011;35993;52.604;10.078;2022-09-27T10:39:28;3.13;;;1.65;;
50102;SDS011;35993;52.604;10.078;2022-09-27T10:41:55;5.28;;;2.00;;
50102;SDS011;35993;52.604;10.078;2022-09-27T10:44:34;4.78;;;2.00;;
50102;SDS011;35993;52.604;10.078;2022-09-27T10:47:17;5.95;;;1.88;;
50102;SDS011;35993;52.604;10.078;2022-09-27T10:50:05;2.72;;;1.48;;
50102;SDS011;35993;52.604;10.078;2022-09-27T10:53:12;2.60;;;1.20;;
50102;SDS011;35993;52.604;10.078;2022-09-27T10:55:49;2.67;;;1.10;;
50102;SDS011;35993;52.604;10.078;2022-09-27T11:01:06;3.00;;;1.50;;
50102;SDS011;35993;52.604;10.078;2022-09-27T11:03:58;3.30;;;1.25;;
50102;SDS011;35993;52.604;10.078;2022-09-27T11:06:26;3.25;;;1.10;;
50102;SDS011;35993;52.604;10.078;2022-09-27T11:08:57;3.47;;;1.20;;
50102;SDS011;35993;52.604;10.078;2022-09-27T11:11:40;3.67;;;1.33;;
50102;SDS011;35993;52.604;10.078;2022-09-27T11:14:18;1.65;;;0.80;;
50102;SDS011;35993;52.604;10.078;2022-09-27T11:25:03;2.80;;;1.10;;
50102;SDS011;35993;52.604;10.078;2022-09-27T11:39:02;1.80;;;1.05;;
50102;SDS011;35993;52.604;10.078;2022-09-27T11:41:55;2.97;;;1.10;;
50102;SDS011;35993;52.604;10.078;2022-09-27T12:05:01;1.05;;;0.77;;
50102;SDS011;35993;52.604;10.078;2022-09-27T12:10:49;3.63;;;1.80;;
50102;SDS011;35993;52.604;10.078;2022-09-27T12:13:35;2.25;;;1.10;;
50102;SDS011;35993;52.604;10.078;2022-09-27T12:16:09;1.75;;;0.80;;
50102;SDS011;35993;52.604;10.078;2022-09-27T12:18:40;1.95;;;0.90;;
50102;SDS011;35993;52.604;10.078;2022-09-27T12:21:26;2.40;;;1.00;;
50102;SDS011;35993;52.604;10.078;2022-09-27T12:23:56;1.52;;;0.65;;
50102;SDS011;35993;52.604;10.078;2022-09-27T12:26:37;0.95;;;0.70;;
50102;SDS011;35993;52.604;10.078;2022-09-27T12:31:43;4.13;;;1.30;;
50102;SDS011;35993;52.604;10.078;2022-09-27T12:34:18;0.52;;;0.43;;
50102;SDS011;35993;52.604;10.078;2022-09-27T12:42:46;1.63;;;0.60;;
50102;SDS011;35993;52.604;10.078;2022-09-27T12:51:23;3.55;;;1.38;;
50102;SDS011;35993;52.604;10.078;2022-09-27T13:00:09;1.27;;;0.80;;
50102;SDS011;35993;52.604;10.078;2022-09-27T13:02:48;1.77;;;0.82;;
50102;SDS011;35993;52.604;10.078;2022-09-27T13:14:20;1.35;;;0.73;;
50102;SDS011;35993;52.604;10.078;2022-09-27T13:16:56;2.08;;;1.00;;
50102;SDS011;35993;52.604;10.078;2022-09-27T13:22:38;1.50;;;0.93;;
50102;SDS011;35993;52.604;10.078;2022-09-27T13:28:56;1.45;;;0.80;;
50102;SDS011;35993;52.604;10.078;2022-09-27T13:40:35;2.15;;;0.60;;
50102;SDS011;35993;52.604;10.078;2022-09-27T13:49:47;1.92;;;1.00;;
50102;SDS011;35993;52.604;10.078;2022-09-27T13:53:07;1.05;;;0.85;;
50102;SDS011;35993;52.604;10.078;2022-09-27T13:55:58;3.70;;;1.20;;
50102;SDS011;35993;52.604;10.078;2022-09-27T14:01:44;3.22;;;1.88;;
50102;SDS011;35993;52.604;10.078;2022-09-27T14:04:22;4.00;;;1.70;;
50102;SDS011;35993;52.604;10.078;2022-09-27T14:07:06;2.55;;;1.27;;
50102;SDS011;35993;52.604;10.078;2022-09-27T14:09:38;2.00;;;1.20;;
50102;SDS011;35993;52.604;10.078;2022-09-27T14:12:21;2.05;;;1.00;;
50102;SDS011;35993;52.604;10.078;2022-09-27T14:14:53;1.45;;;0.95;;
50102;SDS011;35993;52.604;10.078;2022-09-27T14:17:20;4.22;;;1.40;;
50102;SDS011;35993;52.604;10.078;2022-09-27T14:19:48;2.55;;;1.20;;
50102;SDS011;35993;52.604;10.078;2022-09-27T14:22:19;2.70;;;1.67;;
50102;SDS011;35993;52.604;10.078;2022-09-27T14:24:55;1.38;;;1.00;;
50102;SDS011;35993;52.604;10.078;2022-09-27T14:27:27;2.90;;;0.95;;
50102;SDS011;35993;52.604;10.078;2022-09-27T14:30:24;2.05;;;1.05;;
50102;SDS011;35993;52.604;10.078;2022-09-27T14:33:28;1.88;;;0.70;;
50102;SDS011;35993;52.604;10.078;2022-09-27T14:36:00;1.98;;;1.02;;
50102;SDS011;35993;52.604;10.078;2022-09-27T14:38:46;0.77;;;0.63;;
50102;SDS011;35993;52.604;10.078;2022-09-27T14:41:19;2.30;;;1.42;;
50102;SDS011;35993;52.604;10.078;2022-09-27T14:43:45;3.53;;;0.90;;
50102;SDS011;35993;52.604;10.078;2022-09-27T14:46:26;1.50;;;0.70;;
50102;SDS011;35993;52.604;10.078;2022-09-27T14:48:53;2.22;;;0.73;;
50102;SDS011;35993;52.604;10.078;2022-09-27T14:51:23;2.97;;;1.17;;
50102;SDS011;35993;52.604;10.078;2022-09-27T14:53:52;1.98;;;0.80;;
50102;SDS011;35993;52.604;10.078;2022-09-27T14:56:32;1.90;;;0.77;;
50102;SDS011;35993;52.604;10.078;2022-09-27T14:59:02;2.55;;;0.80;;
50102;SDS011;35993;52.604;10.078;2022-09-27T15:01:33;1.05;;;0.60;;
50102;SDS011;35993;52.604;10.078;2022-09-27T15:04:03;2.58;;;0.70;;
50102;SDS011;35993;52.604;10.078;2022-09-27T15:06:37;1.17;;;0.93;;
50102;SDS011;35993;52.604;10.078;2022-09-27T15:09:03;3.20;;;1.40;;
50102;SDS011;35993;52.604;10.078;2022-09-27T15:11:31;3.30;;;1.30;;
50102;SDS011;35993;52.604;10.078;2022-09-27T15:13:58;1.30;;;0.70;;
50102;SDS011;35993;52.604;10.078;2022-09-27T15:16:27;2.80;;;0.90;;
50102;SDS011;35993;52.604;10.078;2022-09-27T15:19:02;4.13;;;1.10;;
50102;SDS011;35993;52.604;10.078;2022-09-27T15:21:38;3.63;;;1.35;;
50102;SDS011;35993;52.604;10.078;2022-09-27T15:24:03;3.05;;;1.20;;
50102;SDS011;35993;52.604;10.078;2022-09-27T15:26:45;3.53;;;1.70;;
50102;SDS011;35993;52.604;10.078;2022-09-27T15:29:16;1.73;;;0.98;;
50102;SDS011;35993;52.604;10.078;2022-09-27T15:31:44;2.33;;;0.77;;
50102;SDS011;35993;52.604;10.078;2022-09-27T15:34:16;1.00;;;0.70;;
50102;SDS011;35993;52.604;10.078;2022-09-27T15:39:20;1.67;;;0.90;;
50102;SDS011;35993;52.604;10.078;2022-09-27T15:52:51;1.67;;;0.75;;
50102;SDS011;35993;52.604;10.078;2022-09-27T15:55:23;3.65;;;1.20;;
50102;SDS011;35993;52.604;10.078;2022-09-27T15:58:04;1.52;;;0.70;;
50102;SDS011;35993;52.604;10.078;2022-09-27T16:00:32;2.80;;;0.80;;
50102;SDS011;35993;52.604;10.078;2022-09-27T16:03:02;2.10;;;1.00;;
50102;SDS011;35993;52.604;10.078;2022-09-27T16:05:27;1.33;;;0.90;;
50102;SDS011;35993;52.604;10.078;2022-09-27T16:07:54;1.27;;;0.80;;
50102;SDS011;35993;52.604;10.078;2022-09-27T16:10:21;1.13;;;0.70;;
50102;SDS011;35993;52.604;10.078;2022-09-27T16:12:51;2.90;;;0.95;;
50102;SDS011;35993;52.604;10.078;2022-09-27T16:15:17;1.30;;;1.10;;
50102;SDS011;35993;52.604;10.078;2022-09-27T16:17:43;1.13;;;0.90;;
50102;SDS011;35993;52.604;10.078;2022-09-27T16:20:13;3.15;;;1.08;;
50102;SDS011;35993;52.604;10.078;2022-09-27T16:22:49;1.92;;;1.00;;
50102;SDS011;35993;52.604;10.078;2022-09-27T16:25:16;1.35;;;1.08;;
50102;SDS011;35993;52.604;10.078;2022-09-27T16:27:42;1.50;;;1.00;;
50102;SDS011;35993;52.604;10.078;2022-09-27T16:30:08;3.28;;;1.10;;
50102;SDS011;35993;52.604;10.078;2022-09-27T16:32:38;1.58;;;0.80;;
50102;SDS011;35993;52.604;10.078;2022-09-27T16:35:08;1.63;;;1.08;;
50102;SDS011;35993;52.604;10.078;2022-09-27T16:37:34;1.85;;;0.88;;
50102;SDS011;35993;52.604;10.078;2022-09-27T16:40:01;1.30;;;0.90;;
50102;SDS011;35993;52.604;10.078;2022-09-27T16:42:28;15.43;;;6.40;;
50102;SDS011;35993;52.604;10.078;2022-09-27T16:44:54;8.85;;;4.38;;
50102;SDS011;35993;52.604;10.078;2022-09-27T16:47:19;2.30;;;1.33;;
50102;SDS011;35993;52.604;10.078;2022-09-27T16:49:46;2.60;;;1.58;;
50102;SDS011;35993;52.604;10.078;2022-09-27T16:52:31;1.90;;;1.40;;
50102;SDS011;35993;52.604;10.078;2022-09-27T16:55:02;4.38;;;1.80;;
50102;SDS011;35993;52.604;10.078;2022-09-27T16:57:35;5.65;;;2.60;;
50102;SDS011;35993;52.604;10.078;2022-09-27T17:00:03;2.53;;;1.80;;
50102;SDS011;35993;52.604;10.078;2022-09-27T17:02:34;2.78;;;1.55;;
50102;SDS011;35993;52.604;10.078;2022-09-27T17:05:01;3.65;;;1.60;;
50102;SDS011;35993;52.604;10.078;2022-09-27T17:07:28;2.42;;;1.50;;
50102;SDS011;35993;52.604;10.078;2022-09-27T17:09:54;3.13;;;1.70;;
50102;SDS011;35993;52.604;10.078;2022-09-27T17:12:19;4.72;;;1.70;;
50102;SDS011;35993;52.604;10.078;2022-09-27T17:14:45;1.95;;;1.40;;
50102;SDS011;35993;52.604;10.078;2022-09-27T17:17:10;2.05;;;1.10;;
50102;SDS011;35993;52.604;10.078;2022-09-27T17:19:36;2.42;;;1.30;;
50102;SDS011;35993;52.604;10.078;2022-09-27T17:22:07;3.10;;;1.67;;
50102;SDS011;35993;52.604;10.078;2022-09-27T17:24:33;4.15;;;1.75;;
50102;SDS011;35993;52.604;10.078;2022-09-27T17:26:59;3.97;;;2.08;;
50102;SDS011;35993;52.604;10.078;2022-09-27T17:29:26;3.58;;;2.10;;
50102;SDS011;35993;52.604;10.078;2022-09-27T17:31:51;2.58;;;1.55;;
50102;SDS011;35993;52.604;10.078;2022-09-27T17:34:17;2.67;;;1.70;;
50102;SDS011;35993;52.604;10.078;2022-09-27T17:36:43;2.75;;;1.50;;
50102;SDS011;35993;52.604;10.078;2022-09-27T17:39:15;4.75;;;1.98;;
50102;SDS011;35993;52.604;10.078;2022-09-27T17:41:42;3.40;;;1.42;;
50102;SDS011;35993;52.604;10.078;2022-09-27T17:44:11;5.50;;;1.52;;
50102;SDS011;35993;52.604;10.078;2022-09-27T17:46:39;2.88;;;1.67;;
50102;SDS011;35993;52.604;10.078;2022-09-27T17:49:05;2.47;;;1.40;;
50102;SDS011;35993;52.604;10.078;2022-09-27T17:51:50;3.58;;;1.60;;
50102;SDS011;35993;52.604;10.078;2022-09-27T17:54:18;4.82;;;1.70;;
50102;SDS011;35993;52.604;10.078;2022-09-27T17:56:47;1.83;;;1.30;;
50102;SDS011;35993;52.604;10.078;2022-09-27T17:59:14;3.60;;;1.83;;
50102;SDS011;35993;52.604;10.078;2022-09-27T18:01:42;2.95;;;1.63;;
50102;SDS011;35993;52.604;10.078;2022-09-27T18:04:12;2.97;;;1.70;;
50102;SDS011;35993;52.604;10.078;2022-09-27T18:06:40;2.28;;;1.50;;
50102;SDS011;35993;52.604;10.078;2022-09-27T18:09:08;2.90;;;1.58;;